Time;durP1;ratioP1;P1;durP2;ratioP2;P2;SDS_P1;SDS_P2;PMS_P1;PMS_P2;Temp;Humidity;BMP_temperature;BMP_pressure;BME280_temperature;BME280_humidity;BME280_pressure;Samples;Min_cycle;Max_cycle;Signal;HPM_P1;HPM_P2
2022/09/30 00:01:53;;;;;;;3.97;1.95;;;19.10;51.30;;;;;;6220636;23;20189;-86
2022/09/30 00:04:28;;;;;;;1.92;1.80;;;19.10;51.40;;;;;;6207735;23;20232;-85
2022/09/30 00:06:55;;;;;;;1.90;1.80;;;19.10;51.40;;;;;;6202690;23;20150;-85
2022/09/30 00:09:25;;;;;;;2.55;2.00;;;19.10;51.40;;;;;;6154301;23;20193;-86
2022/09/30 00:11:57;;;;;;;2.10;1.90;;;19.10;51.40;;;;;;6177896;23;20154;-85
2022/09/30 00:14:27;;;;;;;2.25;2.05;;;19.10;51.50;;;;;;6154384;23;20158;-86
2022/09/30 00:16:54;;;;;;;1.95;1.85;;;19.00;51.40;;;;;;6179292;23;20169;-86
2022/09/30 00:19:24;;;;;;;2.20;1.90;;;19.10;51.50;;;;;;6153074;23;20346;-85
2022/09/30 00:22:01;;;;;;;2.45;2.20;;;19.00;51.50;;;;;;6104828;23;20637;-86
2022/09/30 00:24:40;;;;;;;3.13;1.98;;;19.00;51.50;;;;;;6104417;23;20193;-85
2022/09/30 00:27:17;;;;;;;2.30;2.10;;;19.10;51.50;;;;;;6130620;23;20150;-85
2022/09/30 00:29:45;;;;;;;2.25;2.05;;;19.00;51.50;;;;;;6109466;23;20607;-85
2022/09/30 00:32:15;;;;;;;2.38;2.17;;;19.00;51.60;;;;;;6129765;23;20154;-86
2022/09/30 00:34:45;;;;;;;2.25;2.00;;;19.00;51.60;;;;;;6130952;23;20149;-85
2022/09/30 00:37:21;;;;;;;2.33;2.13;;;19.00;52.30;;;;;;6132264;23;20150;-85
2022/09/30 00:39:48;;;;;;;2.20;1.92;;;19.10;51.70;;;;;;6129632;23;20192;-85
2022/09/30 00:42:18;;;;;;;2.35;2.00;;;19.00;51.60;;;;;;6154414;23;20157;-86
2022/09/30 00:44:56;;;;;;;2.03;1.88;;;19.10;51.70;;;;;;6207393;22;20164;-85
2022/09/30 00:47:40;;;;;;;2.42;1.90;;;19.00;51.70;;;;;;6214557;22;20148;-85
2022/09/30 00:50:17;;;;;;;1.90;1.80;;;19.10;51.70;;;;;;6243112;22;20191;-85
2022/09/30 00:52:54;;;;;;;2.20;2.00;;;18.90;51.70;;;;;;6216913;22;20615;-85
2022/09/30 00:55:44;;;;;;;2.40;2.20;;;19.00;51.70;;;;;;6192046;22;20160;-85
2022/09/30 00:58:17;;;;;;;2.50;2.20;;;19.00;51.80;;;;;;6129747;23;20154;-85
2022/09/30 01:00:49;;;;;;;2.13;1.92;;;19.00;51.80;;;;;;6208819;23;20188;-85
2022/09/30 01:03:19;;;;;;;2.33;2.13;;;19.00;51.80;;;;;;6153625;23;20149;-85
2022/09/30 01:05:51;;;;;;;2.15;1.95;;;19.00;51.80;;;;;;6130646;23;20150;-85
2022/09/30 01:08:32;;;;;;;2.40;2.20;;;19.00;51.90;;;;;;6128389;23;20177;-85
2022/09/30 01:11:02;;;;;;;2.00;1.80;;;19.00;51.90;;;;;;6132892;23;20340;-85
2022/09/30 01:13:32;;;;;;;1.80;1.70;;;19.00;51.90;;;;;;6130663;23;20151;-85
2022/09/30 01:16:42;;;;;;;2.25;2.05;;;19.00;52.60;;;;;;6155459;23;20205;-85
2022/09/30 01:19:23;;;;;;;2.15;1.95;;;19.00;52.00;;;;;;6192371;23;20209;-85
2022/09/30 01:22:01;;;;;;;2.15;1.95;;;19.00;52.00;;;;;;6155688;23;20150;-86
2022/09/30 01:24:38;;;;;;;2.58;2.10;;;19.00;52.00;;;;;;6091883;23;20148;-85
2022/09/30 01:27:11;;;;;;;1.92;1.83;;;19.00;52.10;;;;;;6115703;23;20163;-85
2022/09/30 01:30:02;;;;;;;2.22;2.03;;;19.00;52.10;;;;;;6135600;23;20618;-85
2022/09/30 01:32:39;;;;;;;2.03;1.77;;;18.90;52.10;;;;;;6169120;23;20159;-85
2022/09/30 01:35:15;;;;;;;2.20;2.00;;;19.00;52.10;;;;;;6195524;23;20154;-85
2022/09/30 01:38:00;;;;;;;2.53;1.73;;;19.00;52.10;;;;;;6179934;23;20177;-85
2022/09/30 01:40:38;;;;;;;2.28;2.08;;;19.00;52.20;;;;;;6158811;23;20193;-85
2022/09/30 01:43:30;;;;;;;2.53;2.00;;;18.90;52.10;;;;;;6203989;23;20154;-84
2022/09/30 01:46:01;;;;;;;2.17;1.90;;;19.00;52.10;;;;;;6169219;23;20162;-85
2022/09/30 01:48:40;;;;;;;2.70;2.00;;;19.00;52.20;;;;;;6144722;23;20582;-85
2022/09/30 01:51:19;;;;;;;2.75;2.08;;;19.00;52.20;;;;;;6144050;23;20202;-85
2022/09/30 01:53:54;;;;;;;2.08;1.88;;;19.00;52.30;;;;;;6109682;23;20519;-85
2022/09/30 01:56:33;;;;;;;2.60;2.00;;;19.00;52.20;;;;;;6074618;23;20174;-85
2022/09/30 01:59:09;;;;;;;2.00;1.80;;;19.00;52.30;;;;;;6085480;23;20184;-85
2022/09/30 02:01:49;;;;;;;2.20;2.00;;;19.00;52.40;;;;;;5994105;23;20202;-85
2022/09/30 02:04:25;;;;;;;2.28;2.08;;;19.00;52.40;;;;;;5945676;24;20227;-85
2022/09/30 02:06:58;;;;;;;2.40;2.15;;;18.90;52.40;;;;;;5899530;24;20209;-85
2022/09/30 02:09:31;;;;;;;2.33;1.88;;;19.00;52.50;;;;;;5945135;24;20181;-85
2022/09/30 02:11:59;;;;;;;2.05;1.80;;;18.90;52.40;;;;;;5944399;24;20155;-85
2022/09/30 02:14:38;;;;;;;1.77;1.67;;;19.00;52.50;;;;;;5944392;24;20167;-85
2022/09/30 02:17:14;;;;;;;2.30;2.10;;;18.90;52.40;;;;;;5977319;23;20170;-85
2022/09/30 02:19:44;;;;;;;2.30;1.90;;;19.00;52.40;;;;;;6023443;23;20200;-85
2022/09/30 02:22:18;;;;;;;2.42;2.22;;;18.90;52.50;;;;;;6023728;23;20199;-85
2022/09/30 02:24:46;;;;;;;2.08;1.90;;;18.90;52.50;;;;;;6038082;23;20165;-85
2022/09/30 02:27:40;;;;;;;2.10;1.90;;;18.90;52.50;;;;;;6078721;23;20574;-85
2022/09/30 02:30:14;;;;;;;2.10;1.90;;;19.00;52.50;;;;;;6144949;23;20219;-85
2022/09/30 02:32:47;;;;;;;2.15;1.95;;;18.90;52.50;;;;;;6136281;23;20214;-85
2022/09/30 02:35:22;;;;;;;2.33;2.10;;;18.90;53.30;;;;;;6150179;23;20162;-85
2022/09/30 02:37:54;;;;;;;2.33;2.00;;;18.90;52.60;;;;;;6149496;23;20518;-85
2022/09/30 02:40:35;;;;;;;2.08;1.88;;;18.90;52.60;;;;;;6148826;23;20210;-85
2022/09/30 02:43:02;;;;;;;2.20;2.00;;;19.00;52.60;;;;;;6173426;23;20131;-85
2022/09/30 02:45:43;;;;;;;2.00;1.75;;;18.90;52.60;;;;;;6113230;23;20159;-85
2022/09/30 02:48:31;;;;;;;1.88;1.73;;;18.90;52.60;;;;;;6116515;23;20168;-85
2022/09/30 02:51:24;;;;;;;2.10;1.90;;;18.90;52.80;;;;;;6139098;23;20496;-85
2022/09/30 02:54:07;;;;;;;2.10;1.90;;;18.90;52.60;;;;;;6067334;23;20152;-85
2022/09/30 02:57:05;;;;;;;2.40;2.00;;;19.00;52.80;;;;;;6051928;23;20161;-87
2022/09/30 02:59:45;;;;;;;1.90;1.80;;;18.90;52.80;;;;;;6022366;23;20192;-85
2022/09/30 03:02:15;;;;;;;2.00;1.80;;;18.90;52.80;;;;;;6049873;23;20199;-85
2022/09/30 03:04:42;;;;;;;1.90;1.70;;;18.90;52.80;;;;;;6046669;23;20158;-85
2022/09/30 03:07:10;;;;;;;1.77;1.67;;;19.00;52.80;;;;;;5999297;23;20167;-85
2022/09/30 03:09:40;;;;;;;1.83;1.73;;;18.90;52.80;;;;;;6000696;23;20580;-85
2022/09/30 03:12:16;;;;;;;1.70;1.60;;;18.90;52.80;;;;;;6000520;23;20159;-85
2022/09/30 03:15:02;;;;;;;2.83;1.80;;;18.90;52.80;;;;;;6000225;23;20189;-85
2022/09/30 03:17:38;;;;;;;2.20;2.00;;;18.90;52.80;;;;;;6057772;23;20163;-85
2022/09/30 03:20:35;;;;;;;2.03;1.83;;;18.90;52.90;;;;;;6069332;23;20256;-85
2022/09/30 03:23:38;;;;;;;1.77;1.60;;;18.90;52.80;;;;;;6160274;23;20177;-85
2022/09/30 03:26:13;;;;;;;1.83;1.70;;;18.90;52.90;;;;;;6148684;23;20150;-85
2022/09/30 03:28:55;;;;;;;2.13;1.92;;;18.90;52.80;;;;;;6173050;23;20141;-85
2022/09/30 03:32:08;;;;;;;1.80;1.70;;;18.90;52.90;;;;;;6151775;23;20150;-85
2022/09/30 03:34:54;;;;;;;2.15;1.95;;;18.90;52.90;;;;;;6122227;23;20166;-86
2022/09/30 03:37:36;;;;;;;1.90;1.80;;;18.90;52.90;;;;;;6178137;23;20170;-85
2022/09/30 03:40:19;;;;;;;1.77;1.67;;;18.90;52.90;;;;;;6203185;23;20180;-85
2022/09/30 03:42:59;;;;;;;2.05;1.85;;;18.80;53.00;;;;;;6132427;23;20264;-85
2022/09/30 03:45:36;;;;;;;2.17;1.83;;;18.90;53.00;;;;;;6106161;23;20181;-85
2022/09/30 03:48:09;;;;;;;1.90;1.70;;;18.90;53.00;;;;;;6106994;23;20329;-85
2022/09/30 03:50:40;;;;;;;2.00;1.83;;;18.90;53.20;;;;;;6129191;23;20153;-85
2022/09/30 03:53:14;;;;;;;1.60;1.50;;;18.90;53.00;;;;;;6129179;23;20180;-85
2022/09/30 03:55:49;;;;;;;2.00;1.80;;;18.90;53.10;;;;;;6154476;23;20154;-85
2022/09/30 03:58:18;;;;;;;1.73;1.60;;;18.90;53.20;;;;;;6137607;23;20175;-85
2022/09/30 04:00:49;;;;;;;2.38;2.05;;;18.80;53.00;;;;;;6047153;23;20190;-85
2022/09/30 04:03:22;;;;;;;2.03;1.83;;;18.80;53.10;;;;;;6121914;23;20147;-85
2022/09/30 04:05:53;;;;;;;2.28;2.03;;;18.80;53.10;;;;;;6109742;23;20262;-84
2022/09/30 04:08:25;;;;;;;1.95;1.73;;;18.80;53.10;;;;;;6178870;23;20155;-85
2022/09/30 04:10:56;;;;;;;2.03;1.83;;;18.90;53.20;;;;;;6155286;23;20160;-85
2022/09/30 04:13:24;;;;;;;2.00;1.80;;;18.80;53.20;;;;;;6129825;23;20196;-84
2022/09/30 04:15:55;;;;;;;2.00;1.80;;;18.80;53.20;;;;;;6154151;23;20150;-85
2022/09/30 04:18:22;;;;;;;2.10;1.90;;;18.90;53.30;;;;;;6129452;23;20214;-85
2022/09/30 04:20:52;;;;;;;2.15;1.80;;;18.90;53.30;;;;;;6120237;23;20215;-85
2022/09/30 04:23:19;;;;;;;1.85;1.75;;;18.80;53.30;;;;;;6115630;23;20182;-85
2022/09/30 04:25:52;;;;;;;2.13;1.77;;;18.80;53.20;;;;;;6115991;23;20144;-84
2022/09/30 04:28:21;;;;;;;2.10;1.90;;;18.80;53.20;;;;;;6150638;23;20148;-85
2022/09/30 04:30:48;;;;;;;1.90;1.70;;;18.80;53.30;;;;;;6203694;23;20154;-85
2022/09/30 04:33:14;;;;;;;2.03;1.83;;;18.80;53.30;;;;;;6204947;23;20158;-85
2022/09/30 04:35:44;;;;;;;1.92;1.77;;;18.80;53.20;;;;;;6204571;23;20508;-85
2022/09/30 04:38:11;;;;;;;2.03;1.75;;;18.80;53.30;;;;;;6204746;23;20153;-85
2022/09/30 04:40:37;;;;;;;2.20;2.00;;;18.90;53.30;;;;;;6204479;23;20270;-85
2022/09/30 04:43:05;;;;;;;1.90;1.70;;;18.80;53.40;;;;;;6204498;23;20176;-86
2022/09/30 04:45:31;;;;;;;1.77;1.67;;;18.80;53.30;;;;;;6205131;23;20184;-85
2022/09/30 04:47:59;;;;;;;2.10;1.90;;;18.90;53.50;;;;;;6205260;23;20590;-85
2022/09/30 04:50:26;;;;;;;1.92;1.60;;;18.80;53.30;;;;;;6204965;23;20144;-85
2022/09/30 04:52:58;;;;;;;2.35;2.08;;;18.80;53.30;;;;;;6174558;23;20178;-85
2022/09/30 04:55:24;;;;;;;2.33;1.90;;;18.90;53.50;;;;;;6208809;23;20160;-85
2022/09/30 04:57:53;;;;;;;2.42;1.85;;;18.80;53.30;;;;;;6235829;23;20153;-85
2022/09/30 05:00:19;;;;;;;1.85;1.75;;;18.80;53.50;;;;;;6235196;23;20188;-84
2022/09/30 05:02:56;;;;;;;2.20;1.98;;;18.90;53.40;;;;;;6235854;22;20192;-85
2022/09/30 05:05:27;;;;;;;1.70;1.58;;;18.80;53.30;;;;;;6190990;22;20152;-86
2022/09/30 05:08:03;;;;;;;1.90;1.80;;;18.80;53.40;;;;;;6189840;22;20149;-85
2022/09/30 05:10:30;;;;;;;1.65;1.55;;;18.80;53.10;;;;;;6204002;23;20189;-86
2022/09/30 05:13:03;;;;;;;1.50;1.40;;;18.80;52.80;;;;;;6154974;23;20181;-85
2022/09/30 05:15:33;;;;;;;1.38;1.27;;;18.90;52.80;;;;;;6179608;23;20153;-85
2022/09/30 05:18:04;;;;;;;1.30;1.20;;;18.90;52.70;;;;;;6154714;23;20286;-86
2022/09/30 05:20:37;;;;;;;2.88;1.50;;;18.90;52.50;;;;;;6154091;23;20192;-85
2022/09/30 05:23:05;;;;;;;2.08;1.85;;;18.90;52.50;;;;;;6133661;23;20157;-86
2022/09/30 05:25:34;;;;;;;1.50;1.40;;;18.90;52.40;;;;;;6058236;23;20171;-85
2022/09/30 05:28:07;;;;;;;1.52;1.42;;;18.90;52.30;;;;;;6057759;23;20563;-85
2022/09/30 05:30:36;;;;;;;1.60;1.50;;;18.90;52.30;;;;;;6081607;23;20183;-85
2022/09/30 05:33:08;;;;;;;1.63;1.52;;;18.90;52.30;;;;;;6086751;23;20539;-85
2022/09/30 05:35:42;;;;;;;1.63;1.52;;;18.90;52.20;;;;;;6104841;23;20157;-84
2022/09/30 05:38:10;;;;;;;1.95;1.60;;;19.00;52.30;;;;;;6080091;23;20226;-84
2022/09/30 05:41:07;;;;;;;1.60;1.33;;;19.00;52.30;;;;;;6236217;22;20180;-84
2022/09/30 05:43:36;;;;;;;1.67;1.58;;;18.90;52.30;;;;;;6289749;22;20147;-84
2022/09/30 05:46:14;;;;;;;1.67;1.58;;;18.90;52.30;;;;;;6264219;22;20148;-83
2022/09/30 05:49:12;;;;;;;1.60;1.50;;;19.00;52.30;;;;;;6263729;22;20140;-84
2022/09/30 05:52:18;;;;;;;1.40;1.30;;;19.00;52.20;;;;;;6284337;22;20144;-84
2022/09/30 05:55:08;;;;;;;1.80;1.55;;;19.00;52.10;;;;;;6197995;23;20474;-84
2022/09/30 05:57:56;;;;;;;1.67;1.58;;;19.00;52.20;;;;;;6174132;23;20146;-85
2022/09/30 06:00:33;;;;;;;1.67;1.58;;;19.00;52.20;;;;;;6143408;23;20213;-85
2022/09/30 06:03:13;;;;;;;1.70;1.60;;;18.90;52.10;;;;;;6146089;23;20273;-85
2022/09/30 06:06:00;;;;;;;1.80;1.70;;;19.00;52.10;;;;;;6169627;23;20150;-85
2022/09/30 06:08:45;;;;;;;1.75;1.65;;;19.00;52.20;;;;;;6169654;23;20610;-84
2022/09/30 06:11:23;;;;;;;1.60;1.50;;;19.00;52.10;;;;;;6127117;23;20161;-84
2022/09/30 06:13:56;;;;;;;1.67;1.58;;;19.00;52.20;;;;;;6144971;23;20153;-85
2022/09/30 06:16:25;;;;;;;1.67;1.58;;;19.00;52.10;;;;;;6115977;23;20159;-85
2022/09/30 06:19:05;;;;;;;1.80;1.67;;;19.00;52.10;;;;;;6166296;23;20204;-85
2022/09/30 06:22:15;;;;;;;1.60;1.50;;;19.00;52.10;;;;;;6072064;23;20159;-85
2022/09/30 06:24:58;;;;;;;;;;;;;;;;;;;;;
2022/09/30 06:27:50;;;;;;;1.45;1.35;;;19.00;52.10;;;;;;6080555;23;20560;-85
2022/09/30 06:30:29;;;;;;;1.67;1.58;;;19.00;52.10;;;;;;6132367;23;20156;-85
2022/09/30 06:33:00;;;;;;;1.60;1.50;;;19.00;52.00;;;;;;6082856;23;20495;-84
2022/09/30 06:35:31;;;;;;;1.38;1.27;;;19.00;52.10;;;;;;6078601;23;20157;-85
2022/09/30 06:38:01;;;;;;;1.65;1.55;;;19.00;52.00;;;;;;6077751;23;20137;-85
2022/09/30 06:40:49;;;;;;;1.50;1.40;;;19.00;52.00;;;;;;6077584;23;20516;-86
2022/09/30 06:43:31;;;;;;;1.60;1.50;;;19.00;52.00;;;;;;6020912;23;20154;-85
2022/09/30 06:46:03;;;;;;;2.22;1.30;;;19.00;51.90;;;;;;6021572;23;20157;-85
2022/09/30 06:48:44;;;;;;;1.50;1.38;;;19.00;51.90;;;;;;6019930;23;20158;-85
2022/09/30 06:51:16;;;;;;;1.40;1.30;;;19.00;51.90;;;;;;5976933;23;20161;-85
2022/09/30 06:54:07;;;;;;;1.80;1.70;;;19.00;51.80;;;;;;6014765;23;20154;-85
2022/09/30 06:56:46;;;;;;;1.40;1.30;;;19.00;51.80;;;;;;5941760;24;20156;-85
2022/09/30 06:59:29;;;;;;;1.73;1.52;;;19.10;51.80;;;;;;5971999;24;20202;-85
2022/09/30 07:02:02;;;;;;;1.63;1.52;;;19.00;51.80;;;;;;5953480;24;20202;-85
2022/09/30 07:04:39;;;;;;;1.63;1.40;;;19.00;51.80;;;;;;6011733;23;20174;-86
2022/09/30 07:07:10;;;;;;;1.77;1.67;;;19.00;51.80;;;;;;6011293;23;20574;-85
2022/09/30 07:10:04;;;;;;;1.40;1.30;;;19.00;51.90;;;;;;6013524;23;20159;-85
2022/09/30 07:12:42;;;;;;;1.60;1.50;;;19.10;51.90;;;;;;5965143;24;20159;-85
2022/09/30 07:15:35;;;;;;;1.60;1.50;;;19.00;51.90;;;;;;6037667;23;20757;-85
2022/09/30 07:18:29;;;;;;;1.50;1.40;;;19.10;51.90;;;;;;6017293;23;20241;-84
2022/09/30 07:21:17;;;;;;;1.67;1.58;;;19.00;51.80;;;;;;6017857;23;20246;-85
2022/09/30 07:24:08;;;;;;;;;;;;;;;;;;;;;
2022/09/30 07:26:34;;;;;;;1.75;1.60;;;19.00;51.80;;;;;;6006810;23;20177;-85
2022/09/30 07:29:15;;;;;;;1.60;1.50;;;19.10;51.70;;;;;;6063410;23;20153;-84
2022/09/30 07:31:48;;;;;;;1.70;1.60;;;19.00;51.70;;;;;;6140931;23;20154;-84
2022/09/30 07:34:28;;;;;;;2.08;1.80;;;19.00;51.80;;;;;;6166300;23;20570;-83
2022/09/30 07:37:17;;;;;;;1.50;1.40;;;19.00;51.80;;;;;;6166194;23;20147;-84
2022/09/30 07:39:49;;;;;;;1.55;1.45;;;19.00;51.80;;;;;;6030631;23;20568;-84
2022/09/30 07:42:22;;;;;;;1.58;1.48;;;19.00;51.80;;;;;;6049954;23;20157;-85
2022/09/30 07:52:43;;;;;;;3.05;1.58;;;19.10;51.90;;;;;;6322396;22;20569;-82
2022/09/30 07:55:12;;;;;;;1.70;1.60;;;19.10;51.60;;;;;;6271214;22;20194;-82
2022/09/30 08:01:26;;;;;;;1.70;1.60;;;19.10;51.60;;;;;;6227749;23;20157;-82
2022/09/30 08:04:09;;;;;;;1.58;1.48;;;19.10;51.60;;;;;;6143865;23;20183;-82
2022/09/30 08:06:47;;;;;;;2.47;1.50;;;19.10;51.50;;;;;;6109072;23;20221;-82
2022/09/30 08:09:27;;;;;;;1.50;1.40;;;19.10;51.20;;;;;;6061531;23;20220;-82
2022/09/30 08:15:53;;;;;;;1.60;1.50;;;19.10;51.20;;;;;;6080213;23;20176;-83
2022/09/30 08:25:14;;;;;;;1.80;1.67;;;19.10;51.00;;;;;;6080167;23;20156;-83
2022/09/30 08:45:16;;;;;;;1.70;1.60;;;19.20;51.00;;;;;;6167995;23;20170;-83
2022/09/30 09:02:37;;;;;;;2.03;1.70;;;19.20;51.00;;;;;;6199903;23;20154;-83
2022/09/30 09:19:55;;;;;;;3.22;1.50;;;19.20;50.90;;;;;;6139700;23;20167;-83
2022/09/30 09:36:39;;;;;;;1.73;1.60;;;19.30;50.80;;;;;;6083709;23;20151;-83
2022/09/30 09:46:12;;;;;;;3.03;1.50;;;19.20;50.90;;;;;;6082463;23;20173;-82
2022/09/30 10:10:22;;;;;;;1.95;1.60;;;19.40;50.10;;;;;;6191347;23;20161;-84
2022/09/30 10:13:49;;;;;;;1.45;1.35;;;19.40;50.10;;;;;;6195835;23;20217;-83
2022/09/30 10:16:58;;;;;;;3.88;1.83;;;19.30;50.00;;;;;;6096519;23;20148;-83
2022/09/30 10:19:32;;;;;;;1.55;1.42;;;19.40;49.90;;;;;;6119235;23;20176;-83
2022/09/30 10:22:39;;;;;;;1.50;1.40;;;19.40;49.90;;;;;;6057533;23;20157;-83
2022/09/30 10:25:18;;;;;;;4.82;1.80;;;19.40;50.00;;;;;;6075734;23;20249;-84
2022/09/30 10:28:25;;;;;;;3.33;1.80;;;19.40;50.20;;;;;;6080793;23;20216;-84
2022/09/30 10:34:40;;;;;;;2.53;1.75;;;19.30;50.60;;;;;;6080489;23;20161;-84
2022/09/30 10:48:00;;;;;;;1.50;1.40;;;19.30;50.40;;;;;;6153337;23;20150;-84
2022/09/30 11:08:22;;;;;;;1.80;1.70;;;19.40;49.70;;;;;;6199592;23;20205;-84
2022/09/30 11:24:45;;;;;;;1.85;1.75;;;19.30;50.00;;;;;;6227715;23;20138;-84
2022/09/30 11:27:28;;;;;;;1.63;1.52;;;19.40;49.60;;;;;;6197158;23;20602;-84
2022/09/30 11:30:14;;;;;;;1.85;1.75;;;19.40;49.70;;;;;;6127497;23;20208;-84
2022/09/30 11:33:23;;;;;;;1.67;1.58;;;19.40;49.90;;;;;;6091100;23;20233;-84
2022/09/30 11:36:06;;;;;;;1.58;1.48;;;19.40;49.60;;;;;;6092539;23;20572;-83
2022/09/30 11:38:52;;;;;;;1.98;1.88;;;19.40;49.60;;;;;;6002864;23;20489;-83
2022/09/30 11:41:49;;;;;;;2.72;1.83;;;19.40;49.80;;;;;;6002069;23;20202;-83
2022/09/30 11:44:43;;;;;;;1.75;1.65;;;19.40;49.80;;;;;;5979617;23;20229;-84
2022/09/30 11:47:27;;;;;;;2.05;1.50;;;19.40;49.90;;;;;;5954670;23;20158;-83
2022/09/30 11:50:22;;;;;;;1.75;1.65;;;19.30;49.90;;;;;;5971000;24;20159;-83
2022/09/30 11:53:14;;;;;;;2.28;2.08;;;19.40;49.40;;;;;;5995480;24;20671;-83
2022/09/30 11:56:17;;;;;;;1.65;1.50;;;19.40;49.30;;;;;;5990324;23;20156;-83
2022/09/30 11:58:46;;;;;;;3.80;1.50;;;19.40;49.40;;;;;;5993335;23;20238;-83
2022/09/30 12:01:16;;;;;;;2.60;1.98;;;19.50;49.20;;;;;;5994657;23;20191;-83
2022/09/30 12:03:56;;;;;;;1.52;1.42;;;19.40;50.10;;;;;;6048422;23;20161;-83
2022/09/30 12:06:55;;;;;;;1.92;1.73;;;19.40;49.90;;;;;;6027553;23;20259;-83
2022/09/30 12:09:32;;;;;;;2.00;1.80;;;19.40;50.10;;;;;;6020512;23;20211;-83
2022/09/30 12:12:08;;;;;;;1.70;1.60;;;19.30;50.30;;;;;;6014605;23;20156;-85
2022/09/30 12:14:46;;;;;;;1.90;1.70;;;19.30;49.80;;;;;;6038198;23;20161;-83
2022/09/30 12:17:40;;;;;;;1.83;1.70;;;19.30;50.00;;;;;;6109507;23;20204;-82
2022/09/30 12:20:24;;;;;;;2.17;1.98;;;19.30;50.40;;;;;;6040958;23;20240;-83
2022/09/30 12:23:38;;;;;;;1.73;1.63;;;19.20;50.50;;;;;;5993172;23;20155;-83
2022/09/30 12:26:27;;;;;;;1.95;1.83;;;19.20;49.70;;;;;;6023538;23;20518;-83
2022/09/30 12:32:36;;;;;;;3.30;2.00;;;19.30;50.30;;;;;;5940562;24;20239;-83
2022/09/30 12:35:27;;;;;;;1.90;1.80;;;19.20;50.40;;;;;;5888763;24;20155;-84
2022/09/30 12:38:25;;;;;;;2.05;1.85;;;19.20;50.20;;;;;;5968269;24;20156;-84
2022/09/30 12:41:24;;;;;;;2.03;1.63;;;19.20;50.00;;;;;;5972664;24;20215;-84
2022/09/30 12:44:17;;;;;;;1.52;1.42;;;19.30;50.00;;;;;;5943923;24;20160;-83
2022/09/30 12:47:02;;;;;;;2.03;1.83;;;19.30;50.30;;;;;;5966635;24;20159;-84
2022/09/30 12:49:34;;;;;;;1.65;1.55;;;19.30;50.00;;;;;;5989259;24;20164;-84
2022/09/30 12:52:07;;;;;;;1.88;1.60;;;19.30;50.10;;;;;;6044742;23;20158;-83
2022/09/30 12:54:37;;;;;;;1.70;1.60;;;19.30;50.30;;;;;;6028420;23;20157;-83
2022/09/30 12:57:14;;;;;;;1.80;1.70;;;19.20;49.90;;;;;;6066834;23;20574;-83
2022/09/30 13:00:03;;;;;;;1.65;1.55;;;19.30;50.30;;;;;;6004848;23;20238;-83
2022/09/30 13:02:44;;;;;;;1.70;1.60;;;19.30;50.10;;;;;;6069295;23;20154;-83
2022/09/30 13:05:55;;;;;;;1.60;1.42;;;19.30;49.90;;;;;;6122078;23;20154;-83
2022/09/30 13:08:20;;;;;;;1.90;1.80;;;19.30;50.10;;;;;;6198355;23;20193;-83
2022/09/30 13:11:00;;;;;;;2.03;1.83;;;19.30;50.40;;;;;;6198000;23;20151;-82
2022/09/30 13:13:31;;;;;;;2.03;1.83;;;19.30;50.50;;;;;;6174556;23;20150;-83
2022/09/30 13:16:02;;;;;;;1.50;1.40;;;19.30;50.10;;;;;;6143784;23;20167;-83
2022/09/30 13:18:48;;;;;;;2.13;1.92;;;19.30;50.30;;;;;;6120307;23;20250;-84
2022/09/30 13:21:18;;;;;;;1.73;1.63;;;19.30;50.30;;;;;;6168354;23;20193;-83
2022/09/30 13:23:49;;;;;;;2.08;1.85;;;19.20;50.50;;;;;;6080727;23;20176;-83
2022/09/30 13:26:49;;;;;;;1.90;1.80;;;19.30;50.30;;;;;;6056465;23;20718;-83
2022/09/30 13:29:47;;;;;;;2.15;1.92;;;19.20;50.30;;;;;;6068988;23;20644;-82
2022/09/30 13:32:36;;;;;;;1.90;1.67;;;19.20;50.30;;;;;;6056357;23;20164;-82
2022/09/30 13:35:22;;;;;;;1.67;1.48;;;19.20;49.70;;;;;;6031867;23;20153;-82
2022/09/30 13:38:20;;;;;;;1.50;1.40;;;19.30;49.40;;;;;;6080347;23;20212;-83
2022/09/30 13:41:02;;;;;;;1.67;1.58;;;19.30;49.20;;;;;;5939355;23;20219;-83
2022/09/30 13:44:03;;;;;;;1.60;1.50;;;19.30;49.10;;;;;;5853638;24;20159;-83
2022/09/30 13:46:35;;;;;;;1.58;1.48;;;19.30;49.10;;;;;;5858648;24;20176;-85
2022/09/30 13:49:13;;;;;;;2.10;1.90;;;19.40;49.10;;;;;;5935782;24;20750;-84
2022/09/30 13:51:44;;;;;;;1.70;1.60;;;19.30;49.70;;;;;;5934994;24;20157;-83
2022/09/30 13:54:31;;;;;;;1.70;1.60;;;19.30;49.60;;;;;;5952324;23;20159;-83
2022/09/30 13:57:13;;;;;;;1.60;1.50;;;19.40;49.30;;;;;;5996736;23;20158;-83
2022/09/30 14:00:03;;;;;;;2.00;1.80;;;19.40;49.20;;;;;;6107611;23;20242;-83
2022/09/30 14:03:03;;;;;;;1.77;1.63;;;19.40;49.50;;;;;;5991029;23;20171;-83
2022/09/30 14:05:53;;;;;;;1.48;1.33;;;19.40;49.30;;;;;;6054052;23;20151;-83
2022/09/30 14:08:54;;;;;;;2.42;1.42;;;19.40;49.10;;;;;;6055469;23;20229;-84
2022/09/30 14:11:33;;;;;;;1.50;1.40;;;19.40;49.30;;;;;;6055854;23;20167;-83
2022/09/30 14:14:30;;;;;;;3.55;1.77;;;19.40;49.60;;;;;;6018062;23;20162;-83
2022/09/30 14:17:14;;;;;;;1.50;1.40;;;19.30;49.80;;;;;;6079835;23;20161;-83
2022/09/30 14:20:23;;;;;;;1.80;1.70;;;19.30;49.80;;;;;;6035375;23;20181;-82
2022/09/30 14:23:19;;;;;;;1.77;1.67;;;19.30;49.80;;;;;;6056148;23;20160;-84
2022/09/30 14:26:03;;;;;;;1.50;1.40;;;19.30;49.90;;;;;;6013499;23;20159;-84
2022/09/30 14:28:39;;;;;;;1.85;1.65;;;19.30;49.80;;;;;;5880836;23;20162;-82
2022/09/30 14:31:16;;;;;;;1.92;1.70;;;19.30;49.70;;;;;;6045759;23;20154;-83
2022/09/30 14:34:08;;;;;;;;;;;;;;;;;;;;;
2022/09/30 14:36:59;;;;;;;2.17;1.50;;;19.30;49.50;;;;;;5976266;23;20188;-83
2022/09/30 14:39:39;;;;;;;1.55;1.45;;;19.30;49.40;;;;;;5976396;24;20191;-83
2022/09/30 14:42:31;;;;;;;1.60;1.50;;;19.30;49.50;;;;;;5969909;24;20182;-84
2022/09/30 14:45:09;;;;;;;2.10;1.60;;;19.30;49.60;;;;;;5997103;23;20154;-83
2022/09/30 14:47:43;;;;;;;1.80;1.50;;;19.30;49.60;;;;;;6050324;23;20169;-83
2022/09/30 14:53:26;;;;;;;1.73;1.63;;;19.30;49.60;;;;;;6039649;23;20190;-83
2022/09/30 14:55:52;;;;;;;1.95;1.70;;;19.30;49.70;;;;;;5999172;23;20638;-82
2022/09/30 14:58:41;;;;;;;1.50;1.40;;;19.30;49.60;;;;;;5997935;23;20150;-83
2022/09/30 15:01:20;;;;;;;1.73;1.60;;;19.30;49.60;;;;;;5997871;23;20266;-84
2022/09/30 15:04:24;;;;;;;2.58;1.63;;;19.40;49.60;;;;;;6001757;23;20154;-83
2022/09/30 15:07:20;;;;;;;1.92;1.70;;;19.40;49.60;;;;;;6024854;23;20160;-84
2022/09/30 15:10:17;;;;;;;1.40;1.30;;;19.40;49.60;;;;;;5998151;23;20201;-82
2022/09/30 15:12:50;;;;;;;1.85;1.75;;;19.40;49.50;;;;;;6052025;23;20158;-82
2022/09/30 15:16:17;;;;;;;1.98;1.65;;;19.40;49.50;;;;;;6027703;23;20158;-82
2022/09/30 15:18:57;;;;;;;2.17;1.33;;;19.40;49.80;;;;;;5953455;24;20211;-81
2022/09/30 15:21:49;;;;;;;1.50;1.40;;;19.40;49.60;;;;;;5938292;24;20164;-83
2022/09/30 15:24:41;;;;;;;2.05;1.23;;;19.40;49.50;;;;;;5857377;24;20264;-83
2022/09/30 15:27:41;;;;;;;1.40;1.30;;;19.40;50.20;;;;;;5858659;24;20157;-85
2022/09/30 15:37:36;;;;;;;2.15;1.40;;;19.40;49.80;;;;;;5885505;24;20182;-83
2022/09/30 15:43:49;;;;;;;1.80;1.70;;;19.40;49.80;;;;;;5867270;24;20207;-83
2022/09/30 15:50:18;;;;;;;1.67;1.58;;;19.40;49.90;;;;;;5917753;24;20167;-83
2022/09/30 15:52:47;;;;;;;3.63;1.70;;;19.40;49.90;;;;;;5910971;24;20161;-83
2022/09/30 15:59:21;;;;;;;;;;;;;;;;;;;;;
2022/09/30 16:02:30;;;;;;;2.47;1.48;;;19.40;50.00;;;;;;5904068;24;20173;-83
2022/09/30 16:05:40;;;;;;;1.60;1.50;;;19.40;50.00;;;;;;5886471;24;20158;-83
2022/09/30 16:08:31;;;;;;;1.95;1.70;;;19.40;50.10;;;;;;5877208;24;20336;-84
2022/09/30 16:11:02;;;;;;;3.00;1.55;;;19.40;50.10;;;;;;5814725;24;20167;-84
2022/09/30 16:14:13;;;;;;;4.25;1.58;;;19.40;50.10;;;;;;5878742;24;20169;-84
2022/09/30 16:17:23;;;;;;;3.03;1.83;;;19.40;50.20;;;;;;5855036;24;20226;-84
2022/09/30 16:19:58;;;;;;;2.00;1.70;;;19.40;50.20;;;;;;5909915;24;20245;-84
2022/09/30 16:22:52;;;;;;;1.90;1.70;;;19.40;50.20;;;;;;5881235;24;20189;-83
2022/09/30 16:25:32;;;;;;;4.10;1.80;;;19.40;50.20;;;;;;5893879;24;20189;-84
2022/09/30 16:28:14;;;;;;;2.88;1.80;;;19.40;50.20;;;;;;5917775;24;20215;-83
2022/09/30 16:30:56;;;;;;;3.05;1.70;;;19.40;50.70;;;;;;5895476;24;20165;-83
2022/09/30 16:33:32;;;;;;;2.80;1.80;;;19.40;50.10;;;;;;5979585;24;20162;-83
2022/09/30 16:36:06;;;;;;;2.35;1.80;;;19.40;50.20;;;;;;5950518;24;20178;-83
2022/09/30 16:38:40;;;;;;;3.75;1.60;;;19.40;50.30;;;;;;6026484;23;20180;-83
2022/09/30 16:41:16;;;;;;;3.30;1.77;;;19.40;50.40;;;;;;6019217;23;20239;-83
2022/09/30 16:43:50;;;;;;;5.55;1.70;;;19.40;50.10;;;;;;6063317;23;20184;-84
2022/09/30 16:46:25;;;;;;;2.55;1.58;;;19.40;50.30;;;;;;6062209;23;20164;-83
2022/09/30 16:49:12;;;;;;;3.28;2.00;;;19.40;50.20;;;;;;6062196;23;20152;-84
2022/09/30 16:51:41;;;;;;;2.03;1.63;;;19.40;50.30;;;;;;6086163;23;20159;-83
2022/09/30 16:54:14;;;;;;;3.45;1.65;;;19.40;50.40;;;;;;6110198;23;20152;-82
2022/09/30 16:56:44;;;;;;;2.65;1.75;;;19.40;50.50;;;;;;6139311;23;20147;-83
2022/09/30 16:59:19;;;;;;;2.95;2.13;;;19.40;50.70;;;;;;6114020;23;20580;-84
2022/09/30 17:01:54;;;;;;;4.82;1.73;;;19.40;50.80;;;;;;6092065;23;20177;-84